createdAt,value
2024-03-11T00:00:16.796Z,47.17
2024-03-11T00:00:39.862Z,47.44
2024-03-11T00:01:03.106Z,47.81
2024-03-11T00:01:25.890Z,47.79
2024-03-11T00:01:47.514Z,47.41
2024-03-11T00:02:09.195Z,46.99
2024-03-11T00:02:32.240Z,46.77
2024-03-11T00:02:54.051Z,46.64
2024-03-11T00:03:16.417Z,46.51
2024-03-11T00:03:39.309Z,46.73
2024-03-11T00:04:01.457Z,46.75
2024-03-11T00:04:25.083Z,47.27
2024-03-11T00:04:47.265Z,47.92
2024-03-11T00:05:09.929Z,47.83
2024-03-11T00:05:31.714Z,48.15
2024-03-11T00:05:54.520Z,47.95
2024-03-11T00:06:16.182Z,47.80
2024-03-11T00:06:40.353Z,48.19
2024-03-11T00:07:04.849Z,48.20
2024-03-11T00:07:31.443Z,47.82
2024-03-11T00:07:56.765Z,48.02
2024-03-11T00:08:20.808Z,48.11
2024-03-11T00:08:42.688Z,47.61
2024-03-11T00:09:05.986Z,47.69
2024-03-11T00:09:29.856Z,47.67
2024-03-11T00:09:51.618Z,47.48
2024-03-11T00:10:13.984Z,47.42
2024-03-11T00:10:35.923Z,47.94
2024-03-11T00:11:01.185Z,48.26
2024-03-11T00:11:25.333Z,47.66
2024-03-11T00:11:56.234Z,47.99
2024-03-11T00:12:18.808Z,48.06
2024-03-11T00:12:41.844Z,48.08
2024-03-11T00:13:04.008Z,48.25
2024-03-11T00:13:33.245Z,48.26
2024-03-11T00:13:55.223Z,47.99
2024-03-11T00:14:22.177Z,47.94
2024-03-11T00:14:48.141Z,48.56
2024-03-11T00:15:10.653Z,48.78
2024-03-11T00:15:34.938Z,49.03
2024-03-11T00:15:56.566Z,48.93
2024-03-11T00:16:18.237Z,48.81
2024-03-11T00:16:39.865Z,48.73
2024-03-11T00:17:03.706Z,48.48
2024-03-11T00:17:26.473Z,48.56
2024-03-11T00:17:49.799Z,48.58
2024-03-11T00:18:11.766Z,48.69
2024-03-11T00:18:34.008Z,48.77
2024-03-11T00:18:55.681Z,48.96
2024-03-11T00:19:17.294Z,48.91
2024-03-11T00:19:40.043Z,49.53
2024-03-11T00:20:01.814Z,49.15
2024-03-11T00:20:23.679Z,48.83
2024-03-11T00:20:46.393Z,48.95
2024-03-11T00:21:09.115Z,48.95
2024-03-11T00:21:30.707Z,49.19
2024-03-11T00:21:54.070Z,49.16
2024-03-11T00:22:16.187Z,49.45
2024-03-11T00:22:38.220Z,49.48
2024-03-11T00:22:59.899Z,49.32
2024-03-11T00:23:21.566Z,49.48
2024-03-11T00:23:44.305Z,50.02
2024-03-11T00:24:06.149Z,50.10
2024-03-11T00:24:28.016Z,50.21
2024-03-11T00:24:49.685Z,50.47
2024-03-11T00:25:11.479Z,49.62
2024-03-11T00:25:33.107Z,50.06
2024-03-11T00:25:55.676Z,49.70
2024-03-11T00:26:17.309Z,49.77
2024-03-11T00:26:39.025Z,49.18
2024-03-11T00:27:00.697Z,48.98
2024-03-11T00:27:22.990Z,49.13
2024-03-11T00:27:45.610Z,49.33
2024-03-11T00:28:09.022Z,49.32
2024-03-11T00:28:31.077Z,49.61
2024-03-11T00:28:52.733Z,49.87
2024-03-11T00:29:15.274Z,50.42
2024-03-11T00:29:38.174Z,50.32
2024-03-11T00:30:00.923Z,50.43
2024-03-11T00:30:23.713Z,50.60
2024-03-11T00:30:45.545Z,51.00
2024-03-11T00:31:07.963Z,50.77
2024-03-11T00:31:30.986Z,51.01
2024-03-11T00:31:53.577Z,50.72
2024-03-11T00:32:15.364Z,50.18
2024-03-11T00:32:38.224Z,50.37
2024-03-11T00:33:03.651Z,50.84
2024-03-11T00:33:25.849Z,50.52
2024-03-11T00:33:50.229Z,50.45
2024-03-11T00:34:11.855Z,50.17
2024-03-11T00:34:33.639Z,50.37
2024-03-11T00:34:55.276Z,50.46
2024-03-11T00:35:17.675Z,50.18
2024-03-11T00:35:39.772Z,50.58
2024-03-11T00:36:02.867Z,50.48
2024-03-11T00:36:25.098Z,50.75
2024-03-11T00:36:49.249Z,50.75
2024-03-11T00:37:13.585Z,50.89
2024-03-11T00:37:35.943Z,50.53
2024-03-11T00:37:57.579Z,50.51
2024-03-11T00:38:20.282Z,50.27
2024-03-11T00:38:41.986Z,50.48
2024-03-11T00:39:04.423Z,50.59
2024-03-11T00:39:26.024Z,50.85
2024-03-11T00:39:47.802Z,51.13
2024-03-11T00:40:10.270Z,50.99
2024-03-11T00:40:32.854Z,50.55
2024-03-11T00:40:56.795Z,50.27
2024-03-11T00:41:18.573Z,50.17
2024-03-11T00:41:40.292Z,50.03
2024-03-11T00:42:03.255Z,50.12
2024-03-11T00:42:24.880Z,49.69
2024-03-11T00:42:47.461Z,49.44
2024-03-11T00:43:09.604Z,49.81
2024-03-11T00:43:32.096Z,50.18
2024-03-11T00:43:53.684Z,50.67
2024-03-11T00:44:16.588Z,51.06
2024-03-11T00:44:38.223Z,51.34
2024-03-11T00:45:00.782Z,51.22
2024-03-11T00:45:24.251Z,51.45
2024-03-11T00:45:45.909Z,51.60
2024-03-11T00:46:08.160Z,51.32
2024-03-11T00:46:30.446Z,51.20
2024-03-11T00:46:52.118Z,51.39
2024-03-11T00:47:14.749Z,51.37
2024-03-11T00:47:36.567Z,51.17
2024-03-11T00:47:58.404Z,50.96
2024-03-11T00:48:21.863Z,51.01
2024-03-11T00:48:44.943Z,50.92
2024-03-11T00:49:09.618Z,50.86
2024-03-11T00:49:31.571Z,50.87
2024-03-11T00:49:53.648Z,50.59
2024-03-11T00:50:15.858Z,50.92
2024-03-11T00:50:37.625Z,50.99
2024-03-11T00:51:00.737Z,50.95
2024-03-11T00:51:22.600Z,50.83
2024-03-11T00:51:44.393Z,50.64
2024-03-11T00:52:06.738Z,50.75
2024-03-11T00:52:28.346Z,50.95
2024-03-11T00:52:50.422Z,51.05
2024-03-11T00:53:13.097Z,51.05
2024-03-11T00:53:35.703Z,51.24
2024-03-11T00:53:58.267Z,51.64
2024-03-11T00:54:19.887Z,52.04
2024-03-11T00:54:41.866Z,51.98
2024-03-11T00:55:07.697Z,52.31
2024-03-11T00:55:29.596Z,51.96
2024-03-11T00:55:51.348Z,52.06
2024-03-11T00:56:13.036Z,52.36
2024-03-11T00:56:34.750Z,52.32
2024-03-11T00:56:56.757Z,52.21
2024-03-11T00:57:19.499Z,52.37
2024-03-11T00:57:42.659Z,51.85
2024-03-11T00:58:04.805Z,51.93
2024-03-11T00:58:26.692Z,52.02
2024-03-11T00:58:49.991Z,52.29
2024-03-11T00:59:11.684Z,52.13
2024-03-11T00:59:33.418Z,52.05
2024-03-11T00:59:55.557Z,51.84
2024-03-11T01:00:17.706Z,51.78
2024-03-11T01:00:39.458Z,51.95
2024-03-11T01:01:02.390Z,52.15
2024-03-11T01:01:25.380Z,52.04
2024-03-11T01:01:47.681Z,52.20
2024-03-11T01:02:09.391Z,52.08
2024-03-11T01:02:31.069Z,51.83
2024-03-11T01:02:53.937Z,51.80
2024-03-11T01:03:15.624Z,51.77
2024-03-11T01:03:38.628Z,51.51
2024-03-11T01:04:00.278Z,51.57
2024-03-11T01:04:22.560Z,51.57
2024-03-11T01:04:46.199Z,51.70
2024-03-11T01:05:09.613Z,51.93
2024-03-11T01:05:33.178Z,51.79
2024-03-11T01:05:54.973Z,51.45
2024-03-11T01:06:16.973Z,52.03
2024-03-11T01:06:38.680Z,52.10
2024-03-11T01:07:12.384Z,52.46
2024-03-11T01:07:45.890Z,52.25
2024-03-11T01:08:08.623Z,52.10
2024-03-11T01:08:31.004Z,51.98
2024-03-11T01:08:52.810Z,52.08
2024-03-11T01:09:21.240Z,52.06
2024-03-11T01:09:42.891Z,51.97
2024-03-11T01:10:05.408Z,51.95
2024-03-11T01:10:27.088Z,51.94
2024-03-11T01:10:48.781Z,52.01
2024-03-11T01:11:12.171Z,52.00
2024-03-11T01:11:33.955Z,52.36
2024-03-11T01:11:56.003Z,52.40
2024-03-11T01:12:17.745Z,52.43
2024-03-11T01:12:39.401Z,52.27
2024-03-11T01:13:02.012Z,52.20
2024-03-11T01:13:23.969Z,52.17
2024-03-11T01:13:47.015Z,52.31
2024-03-11T01:14:17.863Z,52.08
2024-03-11T01:14:39.768Z,52.06
2024-03-11T01:15:04.091Z,52.20
2024-03-11T01:15:26.852Z,51.96
2024-03-11T01:15:49.190Z,52.30
2024-03-11T01:16:11.607Z,52.03
2024-03-11T01:16:34.572Z,52.32
2024-03-11T01:16:56.269Z,51.93
2024-03-11T01:17:19.004Z,51.92
2024-03-11T01:17:41.504Z,52.22
2024-03-11T01:18:05.207Z,52.27
2024-03-11T01:19:23.630Z,52.11
2024-03-11T01:19:45.659Z,52.47
2024-03-11T01:20:10.769Z,52.71
2024-03-11T01:20:32.673Z,52.25
2024-03-11T01:20:55.903Z,52.22
2024-03-11T01:21:18.695Z,52.29
2024-03-11T01:21:42.678Z,52.38
2024-03-11T01:22:04.361Z,52.47
2024-03-11T01:22:26.044Z,52.57
2024-03-11T01:22:47.680Z,52.53
2024-03-11T01:23:09.701Z,52.72
2024-03-11T01:23:32.787Z,52.99
2024-03-11T01:23:54.849Z,52.74
2024-03-11T01:24:17.878Z,52.94
2024-03-11T01:24:40.403Z,52.91
2024-03-11T01:25:02.023Z,52.83
2024-03-11T01:25:24.623Z,52.60
2024-03-11T01:25:46.299Z,52.47
2024-03-11T01:26:08.494Z,52.79
2024-03-11T01:26:30.340Z,52.43
2024-03-11T01:26:52.965Z,52.68
2024-03-11T01:27:15.642Z,52.36
2024-03-11T01:27:38.564Z,52.58
2024-03-11T01:28:00.270Z,52.73
2024-03-11T01:28:21.927Z,52.77
2024-03-11T01:28:43.979Z,52.73
2024-03-11T01:29:05.660Z,53.09
2024-03-11T01:29:27.434Z,52.86
2024-03-11T01:29:50.062Z,52.68
2024-03-11T01:30:12.154Z,52.81
2024-03-11T01:30:36.504Z,52.72
2024-03-11T01:30:58.145Z,52.77
2024-03-11T01:31:24.267Z,53.05
2024-03-11T01:31:46.178Z,52.76
2024-03-11T01:32:09.182Z,52.70
2024-03-11T01:32:31.621Z,52.80
2024-03-11T01:32:53.997Z,52.86
2024-03-11T01:33:15.912Z,52.70
2024-03-11T01:33:38.627Z,53.12
2024-03-11T01:34:01.039Z,52.55
2024-03-11T01:34:25.407Z,53.05
2024-03-11T01:34:47.172Z,53.16
2024-03-11T01:35:19.412Z,53.33
2024-03-11T01:35:42.536Z,52.71
2024-03-11T01:36:04.620Z,52.92
2024-03-11T01:36:26.747Z,53.03
2024-03-11T01:36:48.686Z,52.61
2024-03-11T01:37:10.530Z,52.71
2024-03-11T01:37:32.260Z,52.82
2024-03-11T01:37:55.016Z,52.89
2024-03-11T01:38:18.056Z,52.67
2024-03-11T01:38:40.775Z,52.83
2024-03-11T01:39:02.458Z,52.48
2024-03-11T01:39:26.671Z,52.85
2024-03-11T01:39:48.514Z,52.52
2024-03-11T01:40:11.330Z,52.73
2024-03-11T01:40:34.069Z,52.54
2024-03-11T01:40:56.585Z,52.88
2024-03-11T01:41:20.161Z,52.76
2024-03-11T01:41:41.981Z,52.78
2024-03-11T01:42:05.136Z,52.92
2024-03-11T01:42:27.996Z,52.85
2024-03-11T01:42:51.382Z,52.84
2024-03-11T01:43:15.933Z,53.20
2024-03-11T01:43:37.554Z,53.12
2024-03-11T01:43:59.199Z,52.82
2024-03-11T01:44:22.857Z,52.82
2024-03-11T01:44:45.216Z,52.79
2024-03-11T01:45:08.308Z,53.14
2024-03-11T01:45:33.449Z,53.22
2024-03-11T01:45:55.237Z,52.89
2024-03-11T01:46:18.570Z,53.22
2024-03-11T01:46:40.231Z,53.22
2024-03-11T01:47:02.580Z,53.54
2024-03-11T01:47:26.913Z,53.20
2024-03-11T01:47:55.456Z,53.47
2024-03-11T01:48:17.929Z,53.33
2024-03-11T01:48:41.700Z,53.30
2024-03-11T01:49:05.498Z,53.23
2024-03-11T01:49:28.624Z,53.40
2024-03-11T01:49:54.801Z,53.06
2024-03-11T01:50:18.288Z,53.28
2024-03-11T01:50:40.427Z,53.07
2024-03-11T01:51:05.155Z,52.93
2024-03-11T01:51:27.755Z,53.14
2024-03-11T01:51:51.335Z,53.36
2024-03-11T01:52:15.807Z,53.09
2024-03-11T01:52:44.198Z,53.12
2024-03-11T01:53:06.590Z,53.18
2024-03-11T01:53:29.866Z,53.32
2024-03-11T01:53:52.149Z,53.52
2024-03-11T01:54:15.500Z,53.25
2024-03-11T01:54:39.305Z,53.75
2024-03-11T01:55:01.062Z,53.51
2024-03-11T01:55:26.070Z,53.42
2024-03-11T01:55:49.343Z,53.50
2024-03-11T01:56:12.230Z,53.58
2024-03-11T01:56:34.027Z,53.53
2024-03-11T01:56:56.550Z,53.52
2024-03-11T01:57:18.487Z,53.37
2024-03-11T01:57:40.967Z,53.34
2024-03-11T01:58:04.477Z,53.47
2024-03-11T01:58:30.142Z,53.35
2024-03-11T01:58:53.269Z,53.22
2024-03-11T01:59:15.936Z,53.15
2024-03-11T01:59:39.063Z,53.40
2024-03-11T02:00:00.780Z,53.44
2024-03-11T02:00:23.494Z,53.32
2024-03-11T02:00:46.741Z,53.39
2024-03-11T02:01:09.412Z,53.61
2024-03-11T02:01:31.493Z,53.68
2024-03-11T02:01:54.060Z,53.65
2024-03-11T02:02:15.859Z,53.73
2024-03-11T02:02:37.704Z,53.52
2024-03-11T02:02:59.397Z,53.42
2024-03-11T02:03:23.869Z,53.61
2024-03-11T02:03:45.841Z,53.71
2024-03-11T02:04:07.507Z,53.86
2024-03-11T02:04:31.132Z,53.95
2024-03-11T02:04:52.958Z,53.62
2024-03-11T02:05:15.370Z,53.38
2024-03-11T02:05:41.676Z,53.51
2024-03-11T02:06:03.948Z,53.60
2024-03-11T02:06:26.012Z,53.56
2024-03-11T02:06:47.665Z,53.46
2024-03-11T02:07:09.850Z,53.70
2024-03-11T02:07:31.877Z,53.88
2024-03-11T02:07:58.804Z,53.84
2024-03-11T02:08:23.212Z,53.64
2024-03-11T02:08:45.029Z,53.92
2024-03-11T02:09:09.055Z,54.06
2024-03-11T02:09:31.766Z,54.12
2024-03-11T02:09:53.403Z,53.82
2024-03-11T02:10:15.336Z,53.76
2024-03-11T02:10:37.572Z,53.36
2024-03-11T02:10:59.361Z,53.15
2024-03-11T02:11:22.216Z,53.05
2024-03-11T02:11:44.690Z,53.43
2024-03-11T02:12:07.513Z,53.54
2024-03-11T02:12:29.151Z,53.58
2024-03-11T02:12:50.799Z,53.44
2024-03-11T02:13:12.451Z,53.47
2024-03-11T02:13:35.175Z,53.67
2024-03-11T02:13:56.849Z,53.57
2024-03-11T02:14:18.469Z,53.60
2024-03-11T02:14:41.416Z,53.45
2024-03-11T02:15:03.172Z,53.45
2024-03-11T02:15:26.510Z,53.60
2024-03-11T02:15:48.340Z,53.77
2024-03-11T02:16:10.083Z,53.14
2024-03-11T02:16:32.998Z,53.32
2024-03-11T02:16:54.801Z,53.37
2024-03-11T02:17:18.251Z,53.48
2024-03-11T02:17:40.945Z,53.53
2024-03-11T02:18:02.835Z,53.55
2024-03-11T02:18:24.838Z,53.44
2024-03-11T02:18:46.838Z,53.80
2024-03-11T02:19:12.841Z,53.88
2024-03-11T02:19:36.058Z,54.09
2024-03-11T02:19:57.935Z,54.09
2024-03-11T02:20:20.573Z,54.15
2024-03-11T02:20:43.516Z,53.96
2024-03-11T02:21:05.396Z,53.84
2024-03-11T02:21:27.256Z,53.86
2024-03-11T02:21:49.063Z,53.59
2024-03-11T02:22:10.691Z,53.64
2024-03-11T02:22:33.512Z,53.73
2024-03-11T02:22:58.426Z,54.32
2024-03-11T02:23:21.537Z,54.07
2024-03-11T02:23:43.366Z,53.85
2024-03-11T02:24:07.319Z,53.85
2024-03-11T02:24:28.951Z,53.99
2024-03-11T02:24:50.536Z,54.13
2024-03-11T02:25:13.986Z,53.91
2024-03-11T02:25:36.808Z,53.84
2024-03-11T02:25:58.444Z,53.74
2024-03-11T02:26:21.138Z,54.16
2024-03-11T02:26:46.585Z,54.00
2024-03-11T02:27:08.909Z,53.82
2024-03-11T02:27:33.044Z,53.92
2024-03-11T02:27:56.768Z,54.41
2024-03-11T02:28:19.626Z,54.25
2024-03-11T02:28:41.270Z,54.16
2024-03-11T02:29:03.666Z,54.14
2024-03-11T02:29:25.395Z,53.89
2024-03-11T02:29:48.256Z,54.09
2024-03-11T02:30:11.820Z,54.37
2024-03-11T02:30:33.773Z,54.18
2024-03-11T02:30:55.519Z,53.90
2024-03-11T02:31:18.218Z,53.89
2024-03-11T02:31:39.842Z,54.03
2024-03-11T02:32:02.601Z,53.90
2024-03-11T02:32:24.744Z,53.64
2024-03-11T02:32:46.902Z,52.99
2024-03-11T02:33:08.707Z,53.14
2024-03-11T02:33:31.257Z,53.50
2024-03-11T02:33:54.272Z,53.44
2024-03-11T02:34:16.905Z,53.81
2024-03-11T02:34:38.683Z,53.81
2024-03-11T02:35:00.837Z,53.88
2024-03-11T02:35:22.613Z,54.05
2024-03-11T02:35:45.437Z,53.75
2024-03-11T02:36:08.046Z,53.46
2024-03-11T02:36:29.741Z,53.77
2024-03-11T02:36:52.048Z,54.28
2024-03-11T02:37:13.780Z,54.27
2024-03-11T02:37:35.606Z,54.06
2024-03-11T02:37:58.429Z,54.02
2024-03-11T02:38:22.519Z,54.44
2024-03-11T02:38:44.309Z,54.19
2024-03-11T02:39:06.330Z,54.00
2024-03-11T02:39:28.986Z,53.70
2024-03-11T02:39:52.428Z,54.12
2024-03-11T02:40:14.817Z,53.77
2024-03-11T02:40:39.491Z,53.81
2024-03-11T02:41:01.422Z,53.82
2024-03-11T02:41:23.254Z,53.90
2024-03-11T02:41:46.793Z,53.81
2024-03-11T02:42:08.608Z,54.09
2024-03-11T02:42:31.807Z,53.84
2024-03-11T02:42:54.751Z,53.96
2024-03-11T02:43:17.661Z,54.38
2024-03-11T02:43:39.422Z,54.00
2024-03-11T02:44:01.609Z,54.34
2024-03-11T02:44:24.693Z,53.93
2024-03-11T02:44:46.582Z,54.15
2024-03-11T02:45:13.013Z,54.25
2024-03-11T02:45:35.609Z,54.54
2024-03-11T02:45:58.272Z,54.17
2024-03-11T02:46:20.085Z,54.35
2024-03-11T02:46:42.835Z,54.24
2024-03-11T02:47:04.819Z,53.96
2024-03-11T02:47:27.232Z,54.03
2024-03-11T02:47:50.583Z,53.94
2024-03-11T02:48:13.544Z,53.96
2024-03-11T02:48:36.280Z,54.19
2024-03-11T02:48:58.526Z,54.03
2024-03-11T02:49:20.182Z,53.98
2024-03-11T02:49:41.834Z,53.92
2024-03-11T02:50:07.051Z,54.02
2024-03-11T02:50:29.449Z,54.10
2024-03-11T02:50:52.127Z,54.29
2024-03-11T02:51:13.778Z,54.11
2024-03-11T02:51:36.829Z,54.27
2024-03-11T02:52:00.133Z,54.52
2024-03-11T02:52:22.563Z,54.41
2024-03-11T02:52:44.303Z,54.18
2024-03-11T02:53:06.969Z,54.29
2024-03-11T02:53:31.606Z,54.12
2024-03-11T02:53:53.468Z,53.91
2024-03-11T02:54:15.499Z,53.92
2024-03-11T02:54:38.522Z,53.84
2024-03-11T02:55:02.353Z,54.03
2024-03-11T02:55:24.275Z,54.09
2024-03-11T02:55:46.116Z,53.94
2024-03-11T02:56:08.937Z,54.04
2024-03-11T02:56:32.876Z,54.12
2024-03-11T02:56:54.592Z,54.21
2024-03-11T02:57:16.276Z,54.23
2024-03-11T02:57:38.153Z,54.56
2024-03-11T02:57:59.818Z,54.28
2024-03-11T02:58:22.499Z,54.42
2024-03-11T02:58:44.442Z,54.53
2024-03-11T02:59:06.586Z,54.48
2024-03-11T02:59:28.450Z,54.55
2024-03-11T02:59:51.210Z,54.50
2024-03-11T03:00:13.645Z,54.07
2024-03-11T03:00:37.110Z,54.50
2024-03-11T03:00:58.791Z,54.02
2024-03-11T03:01:20.527Z,53.81
2024-03-11T03:01:42.688Z,53.97
2024-03-11T03:02:04.379Z,53.89
2024-03-11T03:02:28.207Z,53.77
2024-03-11T03:02:51.613Z,54.10
2024-03-11T03:03:15.613Z,54.34
2024-03-11T03:03:37.308Z,54.06
2024-03-11T03:03:59.564Z,54.12
2024-03-11T03:04:21.370Z,54.23
2024-03-11T03:04:44.076Z,53.94
2024-03-11T03:05:07.246Z,53.99
2024-03-11T03:05:28.989Z,54.00
2024-03-11T03:05:50.820Z,54.41
2024-03-11T03:06:12.685Z,54.13
2024-03-11T03:06:35.392Z,54.22
2024-03-11T03:06:59.049Z,54.10
2024-03-11T03:07:20.712Z,54.03
2024-03-11T03:07:42.383Z,54.24
2024-03-11T03:08:05.874Z,54.17
2024-03-11T03:08:27.574Z,54.03
2024-03-11T03:08:50.877Z,53.90
2024-03-11T03:09:12.893Z,54.14
2024-03-11T03:09:34.824Z,54.27
2024-03-11T03:09:56.580Z,54.26
2024-03-11T03:10:19.252Z,54.33
2024-03-11T03:10:41.051Z,54.19
2024-03-11T03:11:04.360Z,53.94
2024-03-11T03:11:26.708Z,53.78
2024-03-11T03:11:48.620Z,54.30
2024-03-11T03:12:12.247Z,54.07
2024-03-11T03:12:33.996Z,54.17
2024-03-11T03:12:55.705Z,54.18
2024-03-11T03:13:17.421Z,54.13
2024-03-11T03:13:39.332Z,53.99
2024-03-11T03:14:03.043Z,53.83
2024-03-11T03:14:24.829Z,53.90
2024-03-11T03:14:46.620Z,53.90
2024-03-11T03:15:09.664Z,54.05
2024-03-11T03:15:31.558Z,53.86
2024-03-11T03:15:54.260Z,53.96
2024-03-11T03:16:16.999Z,53.78
2024-03-11T03:16:38.737Z,53.70
2024-03-11T03:17:00.470Z,54.03
2024-03-11T03:17:22.247Z,54.04
2024-03-11T03:17:44.704Z,54.05
2024-03-11T03:18:08.061Z,54.40
2024-03-11T03:18:29.971Z,54.35
2024-03-11T03:18:51.657Z,54.15
2024-03-11T03:19:13.401Z,54.35
2024-03-11T03:19:35.790Z,54.40
2024-03-11T03:19:57.568Z,54.16
2024-03-11T03:20:21.300Z,54.18
2024-03-11T03:20:43.108Z,54.10
2024-03-11T03:21:07.344Z,54.08
2024-03-11T03:21:29.043Z,54.31
2024-03-11T03:21:50.860Z,54.19
2024-03-11T03:22:12.567Z,54.16
2024-03-11T03:22:35.274Z,53.87
2024-03-11T03:22:57.437Z,54.23
2024-03-11T03:23:19.277Z,54.29
2024-03-11T03:23:41.183Z,54.36
2024-03-11T03:24:04.493Z,54.48
2024-03-11T03:24:26.204Z,54.39
2024-03-11T03:24:51.061Z,54.10
2024-03-11T03:25:14.136Z,54.35
2024-03-11T03:25:35.901Z,54.21
2024-03-11T03:25:57.645Z,54.23
2024-03-11T03:26:21.020Z,53.83
2024-03-11T03:26:42.836Z,53.89
2024-03-11T03:27:04.805Z,53.82
2024-03-11T03:27:26.918Z,54.07
2024-03-11T03:27:48.614Z,53.84
2024-03-11T03:28:10.467Z,54.08
2024-03-11T03:28:33.288Z,54.17
2024-03-11T03:28:54.975Z,54.23
2024-03-11T03:29:16.861Z,54.40
2024-03-11T03:29:41.189Z,54.37
2024-03-11T03:30:04.248Z,54.38
2024-03-11T03:30:27.680Z,54.62
2024-03-11T03:30:49.914Z,54.43
2024-03-11T03:31:12.336Z,54.59
2024-03-11T03:31:34.044Z,54.42
2024-03-11T03:31:56.582Z,54.54
2024-03-11T03:32:20.793Z,54.56
2024-03-11T03:32:43.599Z,54.79
2024-03-11T03:33:06.300Z,54.68
2024-03-11T03:33:28.955Z,54.60
2024-03-11T03:33:51.160Z,54.76
2024-03-11T03:34:14.257Z,54.79
2024-03-11T03:34:35.957Z,54.39
2024-03-11T03:34:57.620Z,54.86
2024-03-11T03:35:19.364Z,54.83
2024-03-11T03:35:41.061Z,54.70
2024-03-11T03:36:04.471Z,54.81
2024-03-11T03:36:26.257Z,54.84
2024-03-11T03:36:48.147Z,54.25
2024-03-11T03:37:10.328Z,54.12
2024-03-11T03:37:32.063Z,54.20
2024-03-11T03:37:56.713Z,54.48
2024-03-11T03:38:18.459Z,54.50
2024-03-11T03:38:40.156Z,54.49
2024-03-11T03:39:01.912Z,54.41
2024-03-11T03:39:25.620Z,54.59
2024-03-11T03:39:48.713Z,54.33
2024-03-11T03:40:17.455Z,54.60
2024-03-11T03:40:39.737Z,54.72
2024-03-11T03:41:01.450Z,54.69
2024-03-11T03:41:23.304Z,54.27
2024-03-11T03:41:46.262Z,54.26
2024-03-11T03:42:08.107Z,54.32
2024-03-11T03:42:29.813Z,54.68
2024-03-11T03:42:52.004Z,54.79
2024-03-11T03:43:14.669Z,54.51
2024-03-11T03:43:36.396Z,54.75
2024-03-11T03:43:58.297Z,54.89
2024-03-11T03:44:20.043Z,55.12
2024-03-11T03:44:41.985Z,54.75
2024-03-11T03:45:04.342Z,54.73
2024-03-11T03:45:28.572Z,54.75
2024-03-11T03:45:50.500Z,54.89
2024-03-11T03:46:12.262Z,54.70
2024-03-11T03:46:33.964Z,54.70
2024-03-11T03:46:56.571Z,54.46
2024-03-11T03:47:19.341Z,54.85
2024-03-11T03:47:41.887Z,54.76
2024-03-11T03:48:04.148Z,54.94
2024-03-11T03:48:26.588Z,54.84
2024-03-11T03:48:49.860Z,54.67
2024-03-11T03:49:11.540Z,54.92
2024-03-11T03:49:34.218Z,54.72
2024-03-11T03:49:55.954Z,55.02
2024-03-11T03:50:19.005Z,54.90
2024-03-11T03:50:40.875Z,55.01
2024-03-11T03:51:04.712Z,55.00
2024-03-11T03:51:27.731Z,54.71
2024-03-11T03:51:49.512Z,54.58
2024-03-11T03:52:11.160Z,54.57
2024-03-11T03:52:32.875Z,54.30
2024-03-11T03:52:54.576Z,54.10
2024-03-11T03:53:16.316Z,54.32
2024-03-11T03:53:39.071Z,54.70
2024-03-11T03:54:01.750Z,54.65
2024-03-11T03:54:25.055Z,54.84
2024-03-11T03:54:46.914Z,54.73
2024-03-11T03:55:09.767Z,54.54
2024-03-11T03:55:32.545Z,54.39
2024-03-11T03:55:54.392Z,54.63
2024-03-11T03:56:16.549Z,54.75
2024-03-11T03:56:39.788Z,54.93
2024-03-11T03:57:01.628Z,54.66
2024-03-11T03:57:23.481Z,54.51
2024-03-11T03:57:46.656Z,54.55
2024-03-11T03:58:08.892Z,54.57
2024-03-11T03:58:34.014Z,54.40
2024-03-11T03:58:56.673Z,54.53
2024-03-11T03:59:18.402Z,55.04
2024-03-11T03:59:40.752Z,54.57
2024-03-11T04:00:02.424Z,54.83
2024-03-11T04:00:29.958Z,54.94
2024-03-11T04:00:51.585Z,54.91
2024-03-11T04:01:13.360Z,55.11
2024-03-11T04:01:35.053Z,54.94
2024-03-11T04:01:56.768Z,54.74
2024-03-11T04:02:18.402Z,54.63
2024-03-11T04:02:41.129Z,54.54
2024-03-11T04:03:04.261Z,55.07
2024-03-11T04:03:28.143Z,55.12
2024-03-11T04:03:49.783Z,54.76
2024-03-11T04:04:12.432Z,54.90
2024-03-11T04:04:34.076Z,55.22
2024-03-11T04:04:55.711Z,55.22
2024-03-11T04:05:19.606Z,54.80
2024-03-11T04:05:41.487Z,54.97
2024-03-11T04:06:06.109Z,55.21
2024-03-11T04:06:27.731Z,55.04
2024-03-11T04:06:50.391Z,54.90
2024-03-11T04:07:12.012Z,54.90
2024-03-11T04:07:33.729Z,55.20
2024-03-11T04:07:56.683Z,54.73
2024-03-11T04:08:18.971Z,55.06
2024-03-11T04:08:40.876Z,55.09
2024-03-11T04:09:03.499Z,55.26
2024-03-11T04:09:26.500Z,55.69
2024-03-11T04:09:48.132Z,55.56
2024-03-11T04:10:14.275Z,55.49
2024-03-11T04:10:36.155Z,55.44
2024-03-11T04:10:59.307Z,55.71
2024-03-11T04:11:21.832Z,55.61
2024-03-11T04:11:43.764Z,55.87
2024-03-11T04:12:07.516Z,56.10
2024-03-11T04:12:29.351Z,56.25
2024-03-11T04:12:53.914Z,55.87
2024-03-11T04:13:16.535Z,56.22
2024-03-11T04:13:40.900Z,56.21
2024-03-11T04:14:03.318Z,56.18
2024-03-11T04:14:25.212Z,56.43
2024-03-11T04:14:47.100Z,56.35
2024-03-11T04:15:13.826Z,56.02
2024-03-11T04:15:38.056Z,56.08
2024-03-11T04:15:59.761Z,55.93
2024-03-11T04:16:21.754Z,56.06
2024-03-11T04:16:43.598Z,55.70
2024-03-11T04:17:07.279Z,56.00
2024-03-11T04:17:29.098Z,56.15
2024-03-11T04:17:54.655Z,55.95
2024-03-11T04:18:17.815Z,56.27
2024-03-11T04:18:39.547Z,56.07
2024-03-11T04:19:01.526Z,55.96
2024-03-11T04:19:26.219Z,56.06
2024-03-11T04:19:49.108Z,55.82
2024-03-11T04:20:13.147Z,55.61
2024-03-11T04:20:35.394Z,56.21
2024-03-11T04:20:57.434Z,56.37
2024-03-11T04:21:19.161Z,56.16
2024-03-11T04:21:41.845Z,55.93
2024-03-11T04:22:04.334Z,55.97
2024-03-11T04:22:26.022Z,55.84
2024-03-11T04:22:50.612Z,56.10
2024-03-11T04:23:13.258Z,56.13
2024-03-11T04:23:35.190Z,56.06
2024-03-11T04:24:00.362Z,56.31
2024-03-11T04:24:22.685Z,56.23
2024-03-11T04:24:45.753Z,56.30
2024-03-11T04:25:09.043Z,56.09
2024-03-11T04:25:32.335Z,56.39
2024-03-11T04:25:54.123Z,56.43
2024-03-11T04:26:17.770Z,56.37
2024-03-11T04:26:39.869Z,56.49
2024-03-11T04:27:01.697Z,56.54
2024-03-11T04:27:23.873Z,56.47
2024-03-11T04:27:47.075Z,56.71
2024-03-11T04:28:10.088Z,56.33
2024-03-11T04:28:31.798Z,56.44
2024-03-11T04:28:53.513Z,56.41
2024-03-11T04:29:16.489Z,56.68
2024-03-11T04:29:38.331Z,56.45
2024-03-11T04:30:00.556Z,56.46
2024-03-11T04:30:27.696Z,56.66
2024-03-11T04:30:49.381Z,56.54
2024-03-11T04:31:11.236Z,56.75
2024-03-11T04:31:34.176Z,56.56
2024-03-11T04:31:57.624Z,56.81
2024-03-11T04:32:20.358Z,57.11
2024-03-11T04:32:42.335Z,56.93
2024-03-11T04:33:04.524Z,56.93
2024-03-11T04:33:26.451Z,56.73
2024-03-11T04:33:48.118Z,56.97
2024-03-11T04:34:11.671Z,56.97
2024-03-11T04:34:33.985Z,57.33
2024-03-11T04:34:55.604Z,56.87
2024-03-11T04:35:18.053Z,56.91
2024-03-11T04:35:41.770Z,56.46
2024-03-11T04:36:05.083Z,56.56
2024-03-11T04:36:27.006Z,56.52
2024-03-11T04:36:49.844Z,56.32
2024-03-11T04:37:11.548Z,56.36
2024-03-11T04:37:33.440Z,56.46
2024-03-11T04:37:56.847Z,56.96
2024-03-11T04:38:19.417Z,56.78
2024-03-11T04:38:42.339Z,56.68
2024-03-11T04:39:06.138Z,56.66
2024-03-11T04:39:29.013Z,56.77
2024-03-11T04:39:52.044Z,56.86
2024-03-11T04:40:13.752Z,57.10
2024-03-11T04:40:37.011Z,56.80
2024-03-11T04:40:59.695Z,57.20
2024-03-11T04:41:21.484Z,57.60
2024-03-11T04:41:43.763Z,57.12
2024-03-11T04:42:06.133Z,57.21
2024-03-11T04:42:27.774Z,57.20
2024-03-11T04:42:49.638Z,56.95
2024-03-11T04:43:12.990Z,56.87
2024-03-11T04:43:37.548Z,56.79
2024-03-11T04:43:59.421Z,56.73
2024-03-11T04:44:21.037Z,57.04
2024-03-11T04:44:42.769Z,56.71
2024-03-11T04:45:06.640Z,56.66
2024-03-11T04:45:29.127Z,56.74
2024-03-11T04:45:50.786Z,56.67
2024-03-11T04:46:12.448Z,56.28
2024-03-11T04:46:34.085Z,56.78
2024-03-11T04:46:55.794Z,56.83
2024-03-11T04:47:19.432Z,56.80
2024-03-11T04:47:41.229Z,56.67
2024-03-11T04:48:03.420Z,56.97
2024-03-11T04:48:25.385Z,56.61
2024-03-11T04:48:47.762Z,56.39
2024-03-11T04:49:10.457Z,56.07
2024-03-11T04:49:32.085Z,56.20
2024-03-11T04:49:53.729Z,56.47
2024-03-11T04:50:22.121Z,56.82
2024-03-11T04:50:44.638Z,56.90
2024-03-11T04:51:07.864Z,57.09
2024-03-11T04:51:29.677Z,57.08
2024-03-11T04:51:51.648Z,56.88
2024-03-11T04:52:13.379Z,57.11
2024-03-11T04:52:35.006Z,57.36
2024-03-11T04:52:59.122Z,56.91